createdAt,value
2018-12-04T00:01:21.014Z,93.20
2018-12-04T00:03:48.838Z,93.40
2018-12-04T00:06:16.722Z,93.70
2018-12-04T00:08:44.795Z,93.60
2018-12-04T00:11:12.778Z,93.70
2018-12-04T00:13:40.573Z,93.80
2018-12-04T00:16:08.336Z,93.60
2018-12-04T00:18:36.165Z,93.70
2018-12-04T00:21:03.947Z,93.50
2018-12-04T00:23:31.887Z,93.40
2018-12-04T00:25:59.706Z,93.40
2018-12-04T00:28:27.443Z,93.70
2018-12-04T00:30:55.173Z,93.80
2018-12-04T00:33:22.903Z,93.50
2018-12-04T00:35:50.556Z,93.90
2018-12-04T00:38:18.241Z,94.10
2018-12-04T00:40:45.972Z,94.50
2018-12-04T00:43:14.089Z,94.80
2018-12-04T00:45:42.034Z,94.80
2018-12-04T00:48:09.806Z,94.60
2018-12-04T00:50:37.565Z,94.60
2018-12-04T00:53:08.322Z,94.50
2018-12-04T00:55:37.603Z,94.60
2018-12-04T00:58:05.838Z,94.60
2018-12-04T01:00:33.710Z,94.80
2018-12-04T01:03:01.499Z,94.70
2018-12-04T01:05:29.477Z,94.90
2018-12-04T01:07:57.281Z,94.70
2018-12-04T01:10:25.000Z,94.70
2018-12-04T01:12:52.926Z,94.80
2018-12-04T01:15:20.633Z,94.70
2018-12-04T01:17:48.501Z,94.50
2018-12-04T01:20:16.459Z,94.40
2018-12-04T01:22:44.425Z,94.10
2018-12-04T01:25:12.339Z,94.10
2018-12-04T01:27:40.078Z,94.00
2018-12-04T01:30:08.054Z,94.00
2018-12-04T01:32:35.875Z,93.60
2018-12-04T01:35:04.055Z,93.90
2018-12-04T01:37:31.818Z,93.50
2018-12-04T01:39:59.779Z,93.20
2018-12-04T01:42:27.428Z,92.70
2018-12-04T01:44:55.231Z,92.40
2018-12-04T01:47:23.172Z,92.30
2018-12-04T01:49:51.004Z,92.00
2018-12-04T01:52:18.678Z,92.20
2018-12-04T01:54:46.536Z,92.20
2018-12-04T01:57:14.307Z,91.90
2018-12-04T01:59:42.100Z,91.70
2018-12-04T02:02:09.986Z,92.00
2018-12-04T02:04:37.703Z,92.20
2018-12-04T02:07:05.514Z,92.40
2018-12-04T02:09:33.421Z,92.20
2018-12-04T02:12:01.150Z,91.90
2018-12-04T02:14:28.930Z,91.90
2018-12-04T02:16:56.856Z,91.70
2018-12-04T02:19:24.631Z,91.80
2018-12-04T02:21:52.281Z,91.80
2018-12-04T02:24:19.952Z,91.90
2018-12-04T02:26:47.603Z,91.90
2018-12-04T02:29:15.414Z,92.00
2018-12-04T02:31:43.100Z,92.00
2018-12-04T02:34:10.861Z,91.90
2018-12-04T02:36:38.666Z,92.10
2018-12-04T02:39:07.472Z,92.00
2018-12-04T02:41:36.317Z,91.80
2018-12-04T02:44:04.178Z,91.40
2018-12-04T02:46:31.910Z,91.20
2018-12-04T02:49:00.077Z,91.10
2018-12-04T02:51:27.883Z,91.00
2018-12-04T02:53:55.752Z,91.30
2018-12-04T02:56:23.465Z,91.40
2018-12-04T02:58:51.278Z,91.50
2018-12-04T03:01:19.120Z,91.60
2018-12-04T03:03:47.015Z,91.90
2018-12-04T03:06:14.864Z,91.70
2018-12-04T03:08:42.638Z,91.50
2018-12-04T03:11:10.474Z,90.80
2018-12-04T03:13:38.188Z,90.90
2018-12-04T03:16:06.104Z,91.20
2018-12-04T03:18:33.909Z,91.40
2018-12-04T03:21:01.951Z,91.40
2018-12-04T03:23:29.753Z,91.50
2018-12-04T03:25:57.523Z,91.30
2018-12-04T03:28:25.267Z,91.60
2018-12-04T03:30:55.308Z,91.50
2018-12-04T03:33:42.955Z,91.20
2018-12-04T03:36:10.724Z,91.30
2018-12-04T03:38:38.544Z,91.20
2018-12-04T03:41:06.369Z,91.40
2018-12-04T03:43:34.147Z,91.60
2018-12-04T03:46:02.296Z,91.90
2018-12-04T03:48:30.324Z,92.10
2018-12-04T03:50:58.292Z,91.70
2018-12-04T03:53:26.085Z,91.70
2018-12-04T03:55:53.925Z,91.70
2018-12-04T03:58:21.762Z,91.70
2018-12-04T04:00:49.443Z,91.50
2018-12-04T04:03:17.153Z,91.90
2018-12-04T04:05:44.841Z,92.10
2018-12-04T04:08:12.531Z,92.00
2018-12-04T04:10:40.279Z,91.70
2018-12-04T04:13:08.006Z,91.30
2018-12-04T04:15:36.121Z,91.20
2018-12-04T04:18:03.922Z,91.60
2018-12-04T04:20:31.631Z,91.70
2018-12-04T04:22:59.317Z,91.70
2018-12-04T04:25:26.951Z,91.40
2018-12-04T04:27:54.618Z,91.60
2018-12-04T04:30:22.289Z,92.00
2018-12-04T04:32:50.080Z,91.70
2018-12-04T04:35:19.795Z,91.50
2018-12-04T04:37:47.489Z,91.90
2018-12-04T04:40:15.198Z,91.70
2018-12-04T04:42:42.882Z,91.90
2018-12-04T04:45:10.644Z,91.00
2018-12-04T04:47:38.299Z,91.20
2018-12-04T04:50:06.153Z,91.20
2018-12-04T04:52:33.826Z,91.10
2018-12-04T04:55:01.518Z,90.50
2018-12-04T04:57:29.667Z,90.80
2018-12-04T04:59:57.315Z,89.70
2018-12-04T05:02:24.998Z,90.20
2018-12-04T05:04:52.782Z,89.90
2018-12-04T05:07:20.502Z,89.40
2018-12-04T05:09:49.839Z,90.10
2018-12-04T05:12:17.706Z,90.70
2018-12-04T05:14:45.408Z,91.20
2018-12-04T05:17:13.189Z,91.50
2018-12-04T05:19:40.863Z,92.20
2018-12-04T05:22:08.548Z,90.60
2018-12-04T05:24:36.232Z,89.70
2018-12-04T05:27:03.948Z,89.90
2018-12-04T05:29:31.624Z,90.90
2018-12-04T05:31:59.404Z,91.90
2018-12-04T05:34:27.114Z,93.10
2018-12-04T05:36:54.755Z,93.60
2018-12-04T05:39:22.497Z,93.90
2018-12-04T05:41:50.280Z,94.10
2018-12-04T05:44:17.971Z,93.80
2018-12-04T05:46:45.682Z,94.00
2018-12-04T05:49:13.723Z,93.80
2018-12-04T05:51:41.536Z,93.40
2018-12-04T05:54:14.021Z,93.60
2018-12-04T05:56:42.396Z,93.50
2018-12-04T05:59:10.279Z,93.10
2018-12-04T06:01:38.098Z,93.00
2018-12-04T06:04:05.762Z,93.20
2018-12-04T06:06:33.440Z,93.10
2018-12-04T06:09:01.134Z,93.10
2018-12-04T06:11:30.880Z,93.20
2018-12-04T06:13:58.550Z,93.40
2018-12-04T06:16:26.204Z,93.30
2018-12-04T06:18:53.863Z,93.30
2018-12-04T06:21:21.521Z,93.40
2018-12-04T06:23:49.271Z,93.20
2018-12-04T06:26:17.440Z,93.10
2018-12-04T06:28:45.223Z,93.10
2018-12-04T06:31:12.924Z,93.50
2018-12-04T06:33:40.602Z,93.20
2018-12-04T06:36:08.274Z,93.00
2018-12-04T06:38:35.990Z,93.00
2018-12-04T06:41:03.834Z,92.90
2018-12-04T06:43:31.561Z,92.30
2018-12-04T06:45:59.332Z,91.90
2018-12-04T06:48:27.010Z,92.20
2018-12-04T06:50:54.671Z,92.10
2018-12-04T06:53:29.428Z,92.40
2018-12-04T06:55:57.151Z,92.50
2018-12-04T06:58:31.767Z,92.60
2018-12-04T07:00:59.595Z,92.70
2018-12-04T07:03:27.430Z,92.70
2018-12-04T07:05:56.075Z,92.60
2018-12-04T07:08:24.279Z,92.80
2018-12-04T07:10:52.008Z,93.00
2018-12-04T07:13:23.550Z,92.80
2018-12-04T07:15:51.243Z,92.60
2018-12-04T07:18:18.980Z,92.50
2018-12-04T07:20:46.856Z,92.60
2018-12-04T07:23:14.536Z,92.60
2018-12-04T07:25:42.181Z,92.70
2018-12-04T07:28:09.854Z,92.60
2018-12-04T07:30:37.580Z,92.40
2018-12-04T07:33:05.268Z,92.20
2018-12-04T07:35:32.951Z,92.20
2018-12-04T07:38:00.611Z,92.20
2018-12-04T07:40:28.278Z,92.10
2018-12-04T07:42:55.949Z,92.20
2018-12-04T07:45:23.779Z,91.90
2018-12-04T07:47:51.596Z,92.00
2018-12-04T07:50:19.380Z,92.10
2018-12-04T07:52:47.058Z,91.50
2018-12-04T07:55:14.763Z,91.60
2018-12-04T07:57:42.806Z,91.50
2018-12-04T08:00:10.835Z,91.60
2018-12-04T08:02:38.644Z,92.10
2018-12-04T08:05:06.340Z,92.20
2018-12-04T08:07:34.060Z,92.10
2018-12-04T08:10:01.758Z,92.10
2018-12-04T08:12:29.828Z,91.80
2018-12-04T08:14:57.490Z,91.60
2018-12-04T08:17:25.242Z,91.80
2018-12-04T08:19:52.902Z,91.30
2018-12-04T08:22:20.653Z,91.70
2018-12-04T08:24:48.411Z,91.50
2018-12-04T08:27:50.002Z,91.50
2018-12-04T08:30:20.509Z,91.30
2018-12-04T08:32:48.239Z,91.10
2018-12-04T08:35:31.797Z,91.00
2018-12-04T08:37:59.497Z,90.30
2018-12-04T08:40:28.103Z,90.20
2018-12-04T08:42:55.833Z,90.10
2018-12-04T08:45:29.339Z,89.20
2018-12-04T08:47:57.100Z,89.00
2018-12-04T08:50:29.380Z,87.30
2018-12-04T08:52:57.344Z,86.00
2018-12-04T08:55:25.119Z,84.00
2018-12-04T08:57:52.860Z,81.50
2018-12-04T09:00:20.677Z,81.50
2018-12-04T09:02:49.017Z,80.60
2018-12-04T09:05:16.745Z,80.60
2018-12-04T09:07:44.577Z,81.00
2018-12-04T09:10:12.215Z,78.70
2018-12-04T09:12:40.326Z,78.90
2018-12-04T09:15:09.326Z,78.90
2018-12-04T09:17:38.983Z,79.90
2018-12-04T09:20:07.671Z,80.60
2018-12-04T09:22:35.539Z,81.90
2018-12-04T09:25:04.135Z,82.10
2018-12-04T09:27:32.018Z,83.20
2018-12-04T09:30:00.860Z,83.80
2018-12-04T09:32:32.697Z,83.80
2018-12-04T09:35:00.564Z,83.80
2018-12-04T09:37:29.751Z,83.40
2018-12-04T09:39:57.760Z,82.50
2018-12-04T09:42:25.761Z,83.40
2018-12-04T09:44:53.631Z,82.80
2018-12-04T09:47:21.367Z,82.10
2018-12-04T09:49:49.214Z,80.80
2018-12-04T09:52:17.251Z,79.90
2018-12-04T09:54:45.407Z,77.60
2018-12-04T09:57:13.100Z,78.70
2018-12-04T09:59:42.019Z,79.90
2018-12-04T10:02:09.822Z,75.40
2018-12-04T10:04:37.548Z,77.30
2018-12-04T10:07:05.224Z,77.30
2018-12-04T10:09:33.080Z,76.30
2018-12-04T10:12:00.852Z,75.00
2018-12-04T10:14:28.631Z,74.80
2018-12-04T10:16:56.907Z,75.40
2018-12-04T10:19:24.690Z,74.30
2018-12-04T10:21:52.395Z,72.00
2018-12-04T10:24:20.100Z,71.70
2018-12-04T10:26:52.299Z,72.00
2018-12-04T10:29:20.006Z,70.50
2018-12-04T10:31:47.694Z,69.10
2018-12-04T10:34:15.607Z,68.30
2018-12-04T10:36:43.325Z,66.80
2018-12-04T10:39:11.036Z,62.50
2018-12-04T10:41:39.052Z,63.10
2018-12-04T10:44:07.772Z,61.60
2018-12-04T10:46:35.593Z,61.60
2018-12-04T10:49:03.594Z,60.50
2018-12-04T10:51:31.343Z,60.90
2018-12-04T10:53:59.022Z,59.80
2018-12-04T10:56:26.679Z,61.00
2018-12-04T10:58:54.403Z,60.70
2018-12-04T11:01:24.514Z,61.00
2018-12-04T11:03:52.218Z,62.90
2018-12-04T11:06:19.909Z,62.50
2018-12-04T11:08:47.699Z,61.60
2018-12-04T11:11:15.383Z,60.30
2018-12-04T11:13:43.063Z,60.50
2018-12-04T11:16:10.948Z,61.00
2018-12-04T11:18:38.716Z,60.70
2018-12-04T11:21:06.788Z,62.20
2018-12-04T11:23:35.534Z,61.00
2018-12-04T11:26:03.385Z,60.50
2018-12-04T11:28:31.364Z,62.30
2018-12-04T11:30:59.124Z,61.00
2018-12-04T11:33:26.984Z,62.90
2018-12-04T11:35:54.850Z,61.20
2018-12-04T11:38:22.672Z,62.70
2018-12-04T11:40:50.481Z,62.00
2018-12-04T11:43:18.309Z,63.30
2018-12-04T11:45:47.175Z,62.30
2018-12-04T11:48:15.118Z,62.70
2018-12-04T11:50:43.057Z,62.20
2018-12-04T11:53:10.759Z,62.70
2018-12-04T11:55:38.617Z,63.30
2018-12-04T11:58:06.346Z,64.20
2018-12-04T12:00:35.529Z,69.20
2018-12-04T12:03:03.387Z,72.20
2018-12-04T12:05:31.265Z,74.60
2018-12-04T12:08:01.013Z,75.20
2018-12-04T12:10:28.867Z,76.50
2018-12-04T12:12:56.706Z,77.40
2018-12-04T12:15:24.415Z,78.00
2018-12-04T12:17:52.168Z,78.20
2018-12-04T12:20:19.996Z,78.20
2018-12-04T12:22:47.872Z,77.80
2018-12-04T12:25:15.699Z,78.40
2018-12-04T12:27:43.567Z,78.40
2018-12-04T12:30:11.389Z,78.70
2018-12-04T12:32:39.173Z,78.20
2018-12-04T12:35:07.513Z,78.40
2018-12-04T12:37:35.375Z,79.30
2018-12-04T12:40:04.260Z,79.50
2018-12-04T12:42:32.042Z,79.50
2018-12-04T12:44:59.766Z,79.50
2018-12-04T12:47:27.562Z,79.70
2018-12-04T12:49:55.340Z,79.50
2018-12-04T12:52:23.046Z,79.70
2018-12-04T12:54:50.813Z,80.20
2018-12-04T12:57:18.613Z,79.90
2018-12-04T12:59:46.330Z,80.40
2018-12-04T13:02:13.992Z,80.60
2018-12-04T13:04:41.658Z,80.60
2018-12-04T13:07:09.295Z,81.50
2018-12-04T13:09:37.100Z,81.70
2018-12-04T13:12:04.848Z,80.20
2018-12-04T13:14:33.679Z,80.00
2018-12-04T13:17:01.415Z,78.90
2018-12-04T13:19:29.466Z,80.00
2018-12-04T13:21:57.262Z,80.40
2018-12-04T13:24:24.925Z,81.20
2018-12-04T13:26:52.673Z,80.80
2018-12-04T13:29:20.535Z,81.00
2018-12-04T13:31:48.278Z,80.20
2018-12-04T13:34:16.174Z,80.00
2018-12-04T13:36:43.946Z,79.90
2018-12-04T13:39:11.737Z,80.00
2018-12-04T13:41:39.546Z,80.80
2018-12-04T13:44:07.329Z,80.00
2018-12-04T13:46:35.120Z,79.70
2018-12-04T13:49:02.871Z,78.60
2018-12-04T13:51:30.843Z,78.40
2018-12-04T13:54:00.087Z,77.60
2018-12-04T13:56:28.181Z,77.60
2018-12-04T13:58:56.032Z,75.40
2018-12-04T14:01:23.845Z,75.90
2018-12-04T14:03:51.571Z,74.60
2018-12-04T14:06:19.285Z,75.20
2018-12-04T14:08:47.084Z,75.40
2018-12-04T14:11:14.809Z,75.90
2018-12-04T14:13:42.526Z,76.10
2018-12-04T14:16:10.339Z,76.50
2018-12-04T14:18:38.118Z,77.30
2018-12-04T14:21:05.940Z,77.40
2018-12-04T14:23:33.849Z,78.60
2018-12-04T14:26:01.542Z,78.90
2018-12-04T14:28:30.251Z,79.70
2018-12-04T14:30:58.095Z,79.50
2018-12-04T14:33:25.860Z,79.50
2018-12-04T14:35:53.854Z,79.90
2018-12-04T14:38:24.651Z,80.00
2018-12-04T14:40:51.380Z,78.60
2018-12-04T14:43:19.068Z,79.70
2018-12-04T14:45:46.840Z,80.40
2018-12-04T14:48:14.543Z,80.80
2018-12-04T14:50:42.290Z,81.00
2018-12-04T14:53:10.161Z,81.00
2018-12-04T14:55:38.211Z,81.00
2018-12-04T14:58:06.390Z,81.40
2018-12-04T15:00:37.073Z,81.70
2018-12-04T15:03:04.994Z,81.70
2018-12-04T15:05:32.925Z,82.10
2018-12-04T15:08:00.859Z,81.90
2018-12-04T15:10:28.638Z,81.50
2018-12-04T15:12:56.425Z,82.10
2018-12-04T15:15:24.797Z,82.10
2018-12-04T15:17:52.694Z,82.10
2018-12-04T15:20:20.524Z,81.00
2018-12-04T15:22:48.328Z,81.70
2018-12-04T15:25:16.190Z,82.10
2018-12-04T15:27:44.120Z,82.30
2018-12-04T15:30:11.883Z,81.90
2018-12-04T15:32:39.604Z,81.40
2018-12-04T15:35:07.480Z,80.80
2018-12-04T15:37:35.328Z,79.90
2018-12-04T15:40:04.271Z,80.00
2018-12-04T15:42:32.094Z,79.90
2018-12-04T15:45:09.555Z,80.00
2018-12-04T15:47:37.268Z,80.60
2018-12-04T15:50:29.286Z,80.20
2018-12-04T15:52:57.117Z,79.90
2018-12-04T15:55:24.874Z,79.90
2018-12-04T15:57:52.568Z,79.90
2018-12-04T16:00:25.014Z,80.00
2018-12-04T16:02:54.028Z,80.20
2018-12-04T16:05:21.730Z,80.40
2018-12-04T16:07:49.554Z,81.00
2018-12-04T16:10:17.320Z,80.60
2018-12-04T16:12:45.177Z,81.40
2018-12-04T16:15:13.092Z,81.20
2018-12-04T16:17:41.222Z,81.50
2018-12-04T16:20:09.211Z,81.00
2018-12-04T16:22:37.060Z,81.50
2018-12-04T16:25:06.599Z,81.50
2018-12-04T16:27:34.454Z,81.70
2018-12-04T16:30:02.286Z,81.20
2018-12-04T16:32:30.063Z,82.10
2018-12-04T16:34:57.815Z,81.00
2018-12-04T16:37:26.392Z,80.80
2018-12-04T16:39:54.143Z,80.40
2018-12-04T16:42:21.894Z,80.80
2018-12-04T16:44:49.631Z,79.70
2018-12-04T16:47:17.560Z,80.00
2018-12-04T16:49:45.586Z,80.40
2018-12-04T16:52:13.386Z,80.40
2018-12-04T16:54:41.122Z,80.00
2018-12-04T16:57:09.071Z,81.20
2018-12-04T16:59:36.867Z,80.40
2018-12-04T17:02:04.835Z,80.80
2018-12-04T17:04:32.583Z,81.20
2018-12-04T17:07:00.307Z,81.90
2018-12-04T17:09:28.043Z,81.90
2018-12-04T17:11:55.734Z,81.90
2018-12-04T17:14:35.865Z,81.70
2018-12-04T17:17:04.654Z,81.70
2018-12-04T17:19:34.188Z,81.40
2018-12-04T17:22:01.879Z,80.80
2018-12-04T17:24:29.960Z,81.70
2018-12-04T17:26:57.732Z,82.10
2018-12-04T17:29:25.492Z,82.30
2018-12-04T17:31:53.258Z,82.80
2018-12-04T17:34:21.063Z,83.40
2018-12-04T17:36:48.800Z,83.20
2018-12-04T17:39:16.611Z,83.40
2018-12-04T17:41:47.357Z,83.60
2018-12-04T17:44:15.194Z,83.20
2018-12-04T17:46:43.056Z,82.70
2018-12-04T17:49:10.763Z,82.70
2018-12-04T17:51:38.524Z,83.40
2018-12-04T17:54:06.351Z,83.20
2018-12-04T17:56:35.307Z,83.40
2018-12-04T17:59:03.085Z,83.80
2018-12-04T18:01:30.879Z,83.00
2018-12-04T18:04:00.554Z,83.60
2018-12-04T18:06:28.331Z,84.10
2018-12-04T18:08:57.594Z,83.80
2018-12-04T18:11:27.572Z,84.00
2018-12-04T18:13:55.432Z,84.00
2018-12-04T18:16:23.125Z,84.10
2018-12-04T18:18:50.964Z,84.50
2018-12-04T18:21:18.904Z,85.30
2018-12-04T18:23:46.801Z,85.60
2018-12-04T18:26:14.576Z,86.00
2018-12-04T18:28:42.414Z,86.40
2018-12-04T18:31:10.105Z,85.80
2018-12-04T18:33:38.615Z,85.60
2018-12-04T18:36:06.559Z,86.00
2018-12-04T18:38:34.410Z,85.60
2018-12-04T18:41:02.190Z,85.50
2018-12-04T18:43:30.292Z,86.20
2018-12-04T18:45:58.599Z,86.80
2018-12-04T18:48:26.435Z,87.10
2018-12-04T18:50:54.284Z,87.30
2018-12-04T18:53:22.195Z,87.30
2018-12-04T18:55:49.921Z,87.50
2018-12-04T18:58:17.793Z,87.70
2018-12-04T19:00:45.568Z,87.90
2018-12-04T19:03:13.400Z,87.50
2018-12-04T19:05:41.225Z,87.50
2018-12-04T19:08:09.052Z,87.30
2018-12-04T19:10:36.916Z,87.50
2018-12-04T19:13:05.299Z,87.70
2018-12-04T19:15:33.091Z,88.20
2018-12-04T19:18:00.860Z,88.60
2018-12-04T19:20:28.944Z,89.00
2018-12-04T19:22:56.719Z,89.60
2018-12-04T19:25:24.614Z,89.70
2018-12-04T19:27:53.053Z,89.70
2018-12-04T19:30:21.217Z,89.60
2018-12-04T19:32:49.060Z,89.40
2018-12-04T19:35:16.862Z,89.00
2018-12-04T19:37:45.202Z,88.80
2018-12-04T19:40:13.299Z,88.80
2018-12-04T19:42:43.987Z,89.00
2018-12-04T19:45:12.473Z,89.00
2018-12-04T19:47:40.273Z,89.40
2018-12-04T19:50:08.455Z,89.90
2018-12-04T19:52:36.220Z,90.10
2018-12-04T19:55:04.525Z,90.20
2018-12-04T19:57:32.337Z,90.40
2018-12-04T20:00:01.238Z,90.70
2018-12-04T20:02:29.427Z,91.10
2018-12-04T20:04:57.266Z,91.30
2018-12-04T20:07:25.007Z,91.50
2018-12-04T20:09:52.966Z,91.80
2018-12-04T20:12:20.687Z,91.80
2018-12-04T20:14:48.499Z,92.30
2018-12-04T20:17:16.227Z,92.60
2018-12-04T20:19:44.028Z,92.60
2018-12-04T20:22:11.998Z,92.90
2018-12-04T20:24:40.889Z,93.10
2018-12-04T20:27:08.815Z,93.20
2018-12-04T20:29:36.515Z,93.10
2018-12-04T20:32:04.231Z,93.30
2018-12-04T20:34:32.039Z,93.00
2018-12-04T20:36:59.719Z,92.90
2018-12-04T20:39:27.455Z,92.90
2018-12-04T20:41:55.222Z,93.00
2018-12-04T20:44:22.946Z,93.50
2018-12-04T20:46:50.659Z,93.50
2018-12-04T20:49:18.490Z,93.40
2018-12-04T20:51:46.528Z,93.30
2018-12-04T20:54:14.259Z,93.00
2018-12-04T20:56:42.088Z,93.30
2018-12-04T20:59:09.862Z,93.50
2018-12-04T21:01:38.094Z,93.60
2018-12-04T21:04:06.557Z,93.50
2018-12-04T21:06:34.313Z,93.00
2018-12-04T21:09:02.451Z,92.60
2018-12-04T21:11:32.300Z,92.40
2018-12-04T21:14:00.034Z,92.40
2018-12-04T21:16:27.865Z,92.40
2018-12-04T21:18:55.638Z,92.40
2018-12-04T21:21:23.448Z,92.20
2018-12-04T21:23:51.161Z,92.20
2018-12-04T21:26:18.930Z,92.20
2018-12-04T21:28:52.120Z,92.10
2018-12-04T21:31:25.392Z,91.90
2018-12-04T21:33:58.892Z,91.90
2018-12-04T21:36:32.524Z,92.10
2018-12-04T21:39:05.871Z,92.30
2018-12-04T21:41:41.739Z,92.30
2018-12-04T21:44:15.277Z,92.40
2018-12-04T21:46:48.827Z,92.60
2018-12-04T21:49:16.560Z,92.50
2018-12-04T21:51:44.986Z,92.30
2018-12-04T21:54:13.006Z,92.20
2018-12-04T21:56:43.550Z,92.00
2018-12-04T21:59:11.423Z,92.00
2018-12-04T22:01:42.385Z,91.90
2018-12-04T22:04:10.427Z,91.80
2018-12-04T22:06:38.228Z,91.80
2018-12-04T22:09:08.226Z,91.90
2018-12-04T22:11:37.178Z,91.90
2018-12-04T22:14:04.944Z,91.90
2018-12-04T22:16:32.748Z,91.90
2018-12-04T22:19:00.520Z,91.90
2018-12-04T22:21:28.397Z,91.50
2018-12-04T22:23:56.117Z,91.30
2018-12-04T22:26:23.980Z,91.30
2018-12-04T22:28:51.752Z,91.80
2018-12-04T22:31:19.598Z,92.20
2018-12-04T22:33:48.147Z,92.50
2018-12-04T22:36:16.168Z,92.40
2018-12-04T22:38:44.833Z,92.40
2018-12-04T22:41:13.175Z,92.30
2018-12-04T22:43:41.240Z,92.50
2018-12-04T22:46:09.196Z,92.40
2018-12-04T22:48:37.015Z,92.30
2018-12-04T22:51:04.722Z,92.30
2018-12-04T22:53:32.428Z,92.30
2018-12-04T22:56:00.099Z,92.20
2018-12-04T22:58:27.751Z,92.20
2018-12-04T23:00:55.733Z,92.60
2018-12-04T23:03:25.579Z,92.70
2018-12-04T23:05:54.169Z,93.00
2018-12-04T23:08:21.973Z,92.90
2018-12-04T23:10:49.675Z,92.80
2018-12-04T23:13:17.644Z,92.80
2018-12-04T23:15:45.588Z,93.10
2018-12-04T23:18:13.383Z,93.20
2018-12-04T23:20:41.086Z,93.30
2018-12-04T23:23:09.016Z,93.30
2018-12-04T23:25:36.752Z,93.40
2018-12-04T23:28:04.621Z,93.50
2018-12-04T23:30:32.343Z,93.50
2018-12-04T23:33:00.144Z,93.40
2018-12-04T23:35:27.839Z,93.10
2018-12-04T23:37:55.502Z,92.90
2018-12-04T23:40:23.177Z,92.80
2018-12-04T23:42:50.815Z,92.80
2018-12-04T23:45:18.518Z,92.90
2018-12-04T23:47:46.228Z,93.30
2018-12-04T23:50:13.995Z,93.40
2018-12-04T23:52:41.673Z,93.80
2018-12-04T23:55:09.333Z,94.00
2018-12-04T23:57:37.026Z,94.20
